createdAt,value
2022-12-31T00:09:00.414Z,26.57
2022-12-31T00:24:05.920Z,22.60
2022-12-31T00:39:11.630Z,22.43
2022-12-31T00:54:15.641Z,20.40
2022-12-31T01:09:19.771Z,23.50
2022-12-31T01:24:24.546Z,28.17
2022-12-31T01:39:28.847Z,49.03
2022-12-31T01:54:35.027Z,42.80
2022-12-31T02:09:40.398Z,39.47
2022-12-31T02:24:56.164Z,39.20
2022-12-31T02:40:01.372Z,32.90
2022-12-31T02:55:14.814Z,27.80
2022-12-31T03:10:19.594Z,20.90
2022-12-31T03:25:36.815Z,14.87
2022-12-31T03:40:42.137Z,13.83
2022-12-31T03:55:46.257Z,16.17
2022-12-31T04:10:50.373Z,15.87
2022-12-31T04:25:55.203Z,20.20
2022-12-31T04:41:18.923Z,20.60
2022-12-31T04:56:23.873Z,18.93
2022-12-31T05:11:28.147Z,17.33
2022-12-31T05:26:32.626Z,17.20
2022-12-31T05:41:37.170Z,13.97
2022-12-31T05:56:41.785Z,12.77
2022-12-31T06:11:46.557Z,13.30
2022-12-31T06:26:50.978Z,13.60
2022-12-31T06:41:55.141Z,13.93
2022-12-31T06:56:59.448Z,16.93
2022-12-31T07:12:21.907Z,20.70
2022-12-31T07:27:34.804Z,21.97
2022-12-31T07:43:02.876Z,23.43
2022-12-31T07:58:23.811Z,21.37
2022-12-31T08:13:28.570Z,19.00
2022-12-31T08:28:32.855Z,18.80
2022-12-31T08:43:47.524Z,18.03
2022-12-31T08:58:51.725Z,20.27
2022-12-31T09:14:14.426Z,19.30
2022-12-31T09:29:37.260Z,19.73
2022-12-31T09:44:44.345Z,20.80
2022-12-31T09:59:55.265Z,17.90
2022-12-31T10:15:02.284Z,23.90
2022-12-31T10:30:20.201Z,24.60
2022-12-31T10:45:36.274Z,27.40
2022-12-31T11:00:59.147Z,28.83
2022-12-31T11:16:23.021Z,27.60
2022-12-31T11:31:27.267Z,29.40
2022-12-31T11:46:40.005Z,28.90
2022-12-31T12:01:46.799Z,29.57
2022-12-31T12:17:02.609Z,28.03
2022-12-31T12:32:16.699Z,27.73
2022-12-31T12:47:21.081Z,27.03
2022-12-31T13:02:43.861Z,29.47
2022-12-31T13:18:01.944Z,33.50
2022-12-31T13:33:16.003Z,41.07
2022-12-31T13:48:25.582Z,23.57
2022-12-31T14:03:32.319Z,22.17
2022-12-31T14:18:43.056Z,25.83
2022-12-31T14:34:09.992Z,26.23
2022-12-31T14:49:43.190Z,28.13
2022-12-31T15:04:47.351Z,29.33
2022-12-31T15:20:03.153Z,29.70
2022-12-31T15:35:23.010Z,23.53
2022-12-31T15:50:28.766Z,26.90
2022-12-31T16:05:36.048Z,20.83
2022-12-31T16:20:44.039Z,16.17
2022-12-31T16:35:58.089Z,22.87
2022-12-31T16:51:02.514Z,21.97
2022-12-31T17:06:13.116Z,28.40
2022-12-31T17:21:18.435Z,31.30
2022-12-31T17:36:23.986Z,30.90
2022-12-31T17:51:28.304Z,28.87
2022-12-31T18:06:32.757Z,24.13
2022-12-31T18:21:37.593Z,28.57
2022-12-31T18:36:42.263Z,29.00
2022-12-31T18:51:46.611Z,31.70
2022-12-31T19:06:50.611Z,29.47
2022-12-31T19:21:54.841Z,30.50
2022-12-31T19:36:59.087Z,32.17
2022-12-31T19:52:03.690Z,29.10
2022-12-31T20:07:08.040Z,37.87
2022-12-31T20:22:12.748Z,44.43
2022-12-31T20:37:17.203Z,31.13
2022-12-31T20:52:21.690Z,25.70
2022-12-31T21:07:26.628Z,21.13
2022-12-31T21:22:31.012Z,22.07
2022-12-31T21:37:58.533Z,26.50
2022-12-31T21:53:01.079Z,24.23
2022-12-31T22:08:05.840Z,36.43
2022-12-31T22:23:10.047Z,82.77
2022-12-31T22:38:14.350Z,144.77
2022-12-31T22:53:18.323Z,111.63
2022-12-31T23:08:23.911Z,100.50
2022-12-31T23:23:28.439Z,92.97
2022-12-31T23:38:32.857Z,93.97
2022-12-31T23:53:39.587Z,61.03
